Terminal Aerodrome Forecast
Issued by NWS Wilmington, OH

Current Version | Previous Version | Graphics & Text | Print | Product List | Glossary On
Versions: 1 2 3 4 5 6 7 8 9 10 11 12 13 14 15 16
735
FTUS41 KILN 221010 AAA
TAFCMH
TAF AMD
KCMH 221010Z 2210/2306 29009KT P6SM SCT250
      TEMPO 2210/2212 30010G20KT BKN025
     FM222100 VRB05KT P6SM SCT250=

USA.gov is the U.S. government's official web portal to all federal, state and local government web resources and services.